createdAt,value
2023-03-22T00:02:57.825Z,98.10
2023-03-22T00:06:03.693Z,98.00
2023-03-22T00:09:05.895Z,97.90
2023-03-22T00:12:08.020Z,98.10
2023-03-22T00:15:11.310Z,98.40
2023-03-22T00:18:13.332Z,97.80
2023-03-22T00:21:16.999Z,98.00
2023-03-22T00:24:21.242Z,98.20
2023-03-22T00:27:24.456Z,97.70
2023-03-22T00:30:26.446Z,97.90
2023-03-22T00:33:31.357Z,98.20
2023-03-22T00:36:33.409Z,98.10
2023-03-22T00:39:35.505Z,98.00
2023-03-22T00:42:38.612Z,98.30
2023-03-22T00:45:42.167Z,98.00
2023-03-22T00:48:46.141Z,98.10
2023-03-22T00:51:48.374Z,98.10
2023-03-22T00:54:50.336Z,98.30
2023-03-22T00:57:52.318Z,98.30
2023-03-22T01:00:55.368Z,98.10
2023-03-22T01:03:57.537Z,98.20
2023-03-22T01:07:05.815Z,98.20
2023-03-22T01:10:08.551Z,98.30
2023-03-22T01:13:12.250Z,98.40
2023-03-22T01:16:14.395Z,98.30
2023-03-22T01:19:16.467Z,98.20
2023-03-22T01:22:18.484Z,98.70
2023-03-22T01:25:20.522Z,98.40
2023-03-22T01:28:29.378Z,98.50
2023-03-22T01:31:31.842Z,98.40
2023-03-22T01:34:35.837Z,98.50
2023-03-22T01:37:38.994Z,98.50
2023-03-22T01:40:41.513Z,98.40
2023-03-22T01:43:43.834Z,98.50
2023-03-22T01:46:48.300Z,98.60
2023-03-22T01:49:50.593Z,98.40
2023-03-22T01:52:53.740Z,98.50
2023-03-22T01:55:57.872Z,98.60
2023-03-22T01:59:01.138Z,98.50
2023-03-22T02:02:04.558Z,98.60
2023-03-22T02:05:07.860Z,98.50
2023-03-22T02:08:10.662Z,98.60
2023-03-22T02:11:27.907Z,98.50
2023-03-22T02:14:51.115Z,98.60
2023-03-22T02:18:06.556Z,98.80
2023-03-22T02:21:39.086Z,98.80
2023-03-22T02:25:22.994Z,98.90
2023-03-22T02:28:48.372Z,99.10
2023-03-22T02:32:20.725Z,99.00
2023-03-22T02:35:29.019Z,99.10
2023-03-22T02:38:52.590Z,99.20
2023-03-22T02:42:16.512Z,99.40
2023-03-22T02:45:43.465Z,99.30
2023-03-22T02:48:59.324Z,99.30
2023-03-22T02:52:17.617Z,99.60
2023-03-22T02:55:31.935Z,99.60
2023-03-22T02:58:45.941Z,99.50
2023-03-22T03:01:55.050Z,99.60
2023-03-22T03:04:58.057Z,99.50
2023-03-22T03:08:02.789Z,99.80
2023-03-22T03:11:04.722Z,99.90
2023-03-22T03:14:06.820Z,99.90
2023-03-22T03:17:13.712Z,99.90
2023-03-22T03:20:30.333Z,99.90
2023-03-22T03:24:01.850Z,99.90
2023-03-22T03:27:17.902Z,99.90
2023-03-22T03:30:39.146Z,99.90
2023-03-22T03:34:17.772Z,99.90
2023-03-22T03:37:24.857Z,99.90
2023-03-22T03:40:31.132Z,99.90
2023-03-22T03:43:37.307Z,99.90
2023-03-22T03:46:40.093Z,99.90
2023-03-22T03:49:42.285Z,99.90
2023-03-22T03:52:44.352Z,99.90
2023-03-22T03:55:46.745Z,99.90
2023-03-22T03:58:48.762Z,99.70
2023-03-22T04:01:51.726Z,99.80
2023-03-22T04:04:54.003Z,99.90
2023-03-22T04:07:56.007Z,99.90
2023-03-22T04:10:57.994Z,99.90
2023-03-22T04:14:03.660Z,99.80
2023-03-22T04:17:05.747Z,99.90
2023-03-22T04:20:11.049Z,99.90
2023-03-22T04:23:13.200Z,99.90
2023-03-22T04:26:15.524Z,99.90
2023-03-22T04:29:22.154Z,99.90
2023-03-22T04:32:26.340Z,99.90
2023-03-22T04:35:28.409Z,99.90
2023-03-22T04:38:30.459Z,99.90
2023-03-22T04:41:33.572Z,99.90
2023-03-22T04:44:36.161Z,99.70
2023-03-22T04:47:38.237Z,99.90
2023-03-22T04:50:41.477Z,99.90
2023-03-22T04:53:43.767Z,99.90
2023-03-22T04:56:45.977Z,99.60
2023-03-22T04:59:48.040Z,99.70
2023-03-22T05:02:50.298Z,99.90
2023-03-22T05:05:58.245Z,99.60
2023-03-22T05:09:01.133Z,99.70
2023-03-22T05:12:03.149Z,99.90
2023-03-22T05:15:24.907Z,99.80
2023-03-22T05:18:45.542Z,99.90
2023-03-22T05:21:47.583Z,99.90
2023-03-22T05:24:49.687Z,99.90
2023-03-22T05:27:54.337Z,99.90
2023-03-22T05:30:57.271Z,99.90
2023-03-22T05:33:59.386Z,99.90
2023-03-22T05:37:02.484Z,99.90
2023-03-22T05:40:10.909Z,99.90
2023-03-22T05:43:13.600Z,99.90
2023-03-22T05:46:16.714Z,99.90
2023-03-22T05:49:19.834Z,99.90
2023-03-22T05:52:21.988Z,99.90
2023-03-22T05:55:23.984Z,99.90
2023-03-22T05:58:30.796Z,99.90
2023-03-22T06:01:33.925Z,99.90
2023-03-22T06:04:35.995Z,99.90
2023-03-22T06:07:38.566Z,99.90
2023-03-22T06:10:41.070Z,99.90
2023-03-22T06:13:43.486Z,99.90
2023-03-22T06:16:45.607Z,99.90
2023-03-22T06:19:47.994Z,99.90
2023-03-22T06:22:50.009Z,99.90
2023-03-22T06:25:52.978Z,99.90
2023-03-22T06:28:55.011Z,99.90
2023-03-22T06:31:57.005Z,99.90
2023-03-22T06:34:59.093Z,99.90
2023-03-22T06:38:01.737Z,99.90
2023-03-22T06:41:03.967Z,99.90
2023-03-22T06:44:10.501Z,99.90
2023-03-22T06:47:12.671Z,99.90
2023-03-22T06:50:15.979Z,99.90
2023-03-22T06:53:18.029Z,99.90
2023-03-22T06:56:20.548Z,99.90
2023-03-22T06:59:22.642Z,99.90
2023-03-22T07:02:24.744Z,99.90
2023-03-22T07:05:26.987Z,99.90
2023-03-22T07:08:29.065Z,99.90
2023-03-22T07:11:31.144Z,99.40
2023-03-22T07:14:33.386Z,98.80
2023-03-22T07:17:35.465Z,98.30
2023-03-22T07:20:42.895Z,96.80
2023-03-22T07:23:44.996Z,95.60
2023-03-22T07:26:47.027Z,94.40
2023-03-22T07:29:49.151Z,92.70
2023-03-22T07:32:51.344Z,92.40
2023-03-22T07:35:53.409Z,91.40
2023-03-22T07:38:55.488Z,90.70
2023-03-22T07:41:57.723Z,89.30
2023-03-22T07:44:59.846Z,88.20
2023-03-22T07:48:05.666Z,84.80
2023-03-22T07:51:12.420Z,83.70
2023-03-22T07:54:30.508Z,82.40
2023-03-22T07:57:36.342Z,82.50
2023-03-22T08:00:38.722Z,76.80
2023-03-22T08:03:41.019Z,77.10
2023-03-22T08:06:44.015Z,73.00
2023-03-22T08:09:46.377Z,69.50
2023-03-22T08:12:48.588Z,71.40
2023-03-22T08:15:50.816Z,68.00
2023-03-22T08:18:53.015Z,68.10
2023-03-22T08:21:55.020Z,67.00
2023-03-22T08:24:57.390Z,67.50
2023-03-22T08:28:02.445Z,64.20
2023-03-22T08:31:13.919Z,66.00
2023-03-22T08:34:38.124Z,63.20
2023-03-22T08:37:40.414Z,60.60
2023-03-22T08:40:45.712Z,58.70
2023-03-22T08:43:47.789Z,59.40
2023-03-22T08:46:49.985Z,59.00
2023-03-22T08:49:51.990Z,56.20
2023-03-22T08:52:54.112Z,55.20
2023-03-22T08:55:58.328Z,54.80
2023-03-22T08:59:00.412Z,56.50
2023-03-22T09:02:02.703Z,56.00
2023-03-22T09:05:05.142Z,56.00
2023-03-22T09:08:07.438Z,52.90
2023-03-22T09:11:12.478Z,53.20
2023-03-22T09:14:14.661Z,50.70
2023-03-22T09:17:20.685Z,52.30
2023-03-22T09:20:26.164Z,50.90
2023-03-22T09:23:30.439Z,49.70
2023-03-22T09:26:32.657Z,50.20
2023-03-22T09:29:34.839Z,48.10
2023-03-22T09:32:38.695Z,46.90
2023-03-22T09:35:42.824Z,46.10
2023-03-22T09:38:45.735Z,47.20
2023-03-22T09:41:54.600Z,45.80
2023-03-22T09:44:57.822Z,44.40
2023-03-22T09:48:00.641Z,45.60
2023-03-22T09:51:04.860Z,44.40
2023-03-22T09:54:21.872Z,43.80
2023-03-22T09:57:37.150Z,45.40
2023-03-22T10:00:48.381Z,43.60
2023-03-22T10:04:15.069Z,44.40
2023-03-22T10:07:17.118Z,44.40
2023-03-22T10:10:23.368Z,43.10
2023-03-22T10:13:54.477Z,44.10
2023-03-22T10:16:59.092Z,41.50
2023-03-22T10:20:19.842Z,43.60
2023-03-22T10:23:47.826Z,42.10
2023-03-22T10:26:51.421Z,43.30
2023-03-22T10:30:01.511Z,43.50
2023-03-22T10:33:12.265Z,44.00
2023-03-22T10:36:16.661Z,41.50
2023-03-22T10:39:32.694Z,42.60
2023-03-22T10:42:38.668Z,44.00
2023-03-22T10:45:43.403Z,43.30
2023-03-22T10:48:49.824Z,42.80
2023-03-22T10:51:57.582Z,39.70
2023-03-22T10:55:04.366Z,40.40
2023-03-22T10:58:16.009Z,38.60
2023-03-22T11:01:33.568Z,40.00
2023-03-22T11:04:37.682Z,39.70
2023-03-22T11:07:44.725Z,43.70
2023-03-22T11:10:51.654Z,40.90
2023-03-22T11:14:15.980Z,41.70
2023-03-22T11:17:26.177Z,40.60
2023-03-22T11:20:30.671Z,41.70
2023-03-22T11:23:36.141Z,42.40
2023-03-22T11:26:40.839Z,43.20
2023-03-22T11:29:48.465Z,45.60
2023-03-22T11:33:01.890Z,45.00
2023-03-22T11:36:25.186Z,43.80
2023-03-22T11:39:29.426Z,46.50
2023-03-22T11:42:34.708Z,49.00
2023-03-22T11:45:41.566Z,51.60
2023-03-22T11:48:46.768Z,54.90
2023-03-22T11:51:50.060Z,57.80
2023-03-22T11:54:54.833Z,59.30
2023-03-22T11:57:57.240Z,62.00
2023-03-22T12:01:01.543Z,66.20
2023-03-22T12:04:09.314Z,70.00
2023-03-22T12:07:16.522Z,71.00
2023-03-22T12:10:39.840Z,71.40
2023-03-22T12:14:09.573Z,68.90
2023-03-22T12:17:24.403Z,70.10
2023-03-22T12:20:47.746Z,72.10
2023-03-22T12:23:49.740Z,72.30
2023-03-22T12:26:55.716Z,72.70
2023-03-22T12:30:01.751Z,74.50
2023-03-22T12:33:27.356Z,73.90
2023-03-22T12:36:54.680Z,74.10
2023-03-22T12:40:02.128Z,73.50
2023-03-22T12:43:16.498Z,73.30
2023-03-22T12:46:24.002Z,74.00
2023-03-22T12:49:40.745Z,73.10
2023-03-22T12:52:57.108Z,74.00
2023-03-22T12:56:01.043Z,75.80
2023-03-22T12:59:06.696Z,76.10
2023-03-22T13:02:27.623Z,76.40
2023-03-22T13:05:33.601Z,76.00
2023-03-22T13:09:02.235Z,76.40
2023-03-22T13:12:19.171Z,75.90
2023-03-22T13:15:41.788Z,78.30
2023-03-22T13:18:45.256Z,78.20
2023-03-22T13:21:50.031Z,77.80
2023-03-22T13:25:06.634Z,77.30
2023-03-22T13:28:26.531Z,77.20
2023-03-22T13:31:44.077Z,76.40
2023-03-22T13:34:52.077Z,77.30
2023-03-22T13:38:02.126Z,75.80
2023-03-22T13:41:09.856Z,76.50
2023-03-22T13:44:26.689Z,76.50
2023-03-22T13:47:36.946Z,75.80
2023-03-22T13:50:40.234Z,76.80
2023-03-22T13:54:05.685Z,75.90
2023-03-22T13:57:17.638Z,76.50
2023-03-22T14:00:42.659Z,76.30
2023-03-22T14:03:47.663Z,75.60
2023-03-22T14:06:57.609Z,75.40
2023-03-22T14:10:25.737Z,75.60
2023-03-22T14:13:39.718Z,75.30
2023-03-22T14:16:49.486Z,75.70
2023-03-22T14:19:52.429Z,76.60
